Luka, Czech Republic

6:38 PM CEST on July 27, 2016 (GMT +0200)
Vilemov, Olomouc | | Change Station

Elev 1253 ft 49.64 °N, 17.00 °E | Updated 33 seconds ago

Light Thunderstorms and Rain
Light Thunderstorm Rain
73.4 °F
Feels Like 72 °F
N
2.2
Wind Variable Wind from South
Gusts 3.1 mph

Today
High -- | Low -- °F
--% Chance of Precip.
Yesterday
High -- | Low -- °F
Precip. -- in
Pressure 29.95 in
Visibility 6.2 miles
Clouds Few 600 ft
Scattered Clouds 3000 ft
Scattered Clouds 4900 ft
Heat Index 72 °F
Dew Point 70 °F
Humidity 88%
Rainfall 0.00 in
Snow Depth Not available.
5:16 AM 8:40 PM
Last Quarter, 42% visible
METAR LKTB 271630Z 11006KT 080V140 9999 -TSRA FEW006 SCT030CB SCT049 20/19 Q1014 NOSIG
Pressure 29.95 in
Visibility 6.2 miles
Clouds Few 600 ft
Scattered Clouds 3000 ft
Scattered Clouds 4900 ft
Heat Index 72 °F
Dew Point 70 °F
Humidity 88%
Rainfall 0.00 in
Snow Depth Not available.
5:16 AM 8:40 PM
Last Quarter, 42% visible
METAR LKTB 271630Z 11006KT 080V140 9999 -TSRA FEW006 SCT030CB SCT049 20/19 Q1014 NOSIG

10-Day Weather Forecast

×

Almanac

Astronomy

Jul. 27, 2016 Rise Set
Actual Time
Civil Twilight
Nautical Twilight
Astronomical Twilight
Moon
Length of Visible Light
Length of Day
Tomorrow will be .
, % of the Moon is Illuminated

Today's Extremes

Country Highs Country Lows

Community

WunderPhotos

Upload Photos

1,927,880 photos uploaded!

WunderBlog® & News

Nearby

Air Quality

  Air Quality AQ Index Pollutant
Not available.

Snow Depth

Station Depth Elevation

Earthquake Activity

City Distance Mag. Time & Date
Minimum magnitude displayed is 2.5.

Coastal Water Temperatures

Place Temperature

Stations

Nearby Weather Stations

Station Location Temp. Windchill Dew Point Humidity Wind Precip. Elev Updated Type